Time;durP1;ratioP1;P1;durP2;ratioP2;P2;SDS_P1;SDS_P2;PMS_P1;PMS_P2;Temp;Humidity;BMP_temperature;BMP_pressure;BME280_temperature;BME280_humidity;BME280_pressure;Samples;Min_cycle;Max_cycle;Signal;HPM_P1;HPM_P2
2023/01/30 04:02:56;;;;;;;32.67;23.93;;;-2.50;99.90;;;;;;5005978;28;20245;-77
2023/01/30 04:05:22;;;;;;;31.03;24.87;;;-2.50;99.90;;;;;;4998606;28;20229;-78
2023/01/30 04:07:48;;;;;;;32.37;25.33;;;-2.40;99.90;;;;;;5009749;28;20212;-78
2023/01/30 04:10:14;;;;;;;35.60;27.33;;;-2.30;99.90;;;;;;4979195;28;20180;-77
2023/01/30 04:12:41;;;;;;;30.70;20.67;;;-2.20;99.90;;;;;;4986213;28;20207;-76
2023/01/30 04:15:08;;;;;;;26.00;21.07;;;-2.10;99.90;;;;;;4998383;28;20176;-76
2023/01/30 04:17:34;;;;;;;31.13;22.93;;;-2.10;99.90;;;;;;5040743;23;20627;-80
2023/01/30 04:19:59;;;;;;;30.23;19.90;;;-1.90;99.90;;;;;;5027686;28;20163;-78
2023/01/30 04:22:25;;;;;;;31.97;24.00;;;-1.80;99.90;;;;;;5048599;28;20215;-81
2023/01/30 04:24:52;;;;;;;33.40;22.43;;;-1.70;99.90;;;;;;5020629;28;20282;-81
2023/01/30 04:27:18;;;;;;;34.73;23.27;;;-1.70;99.90;;;;;;5035384;28;20221;-80
2023/01/30 04:29:43;;;;;;;28.60;21.17;;;-1.60;99.90;;;;;;5035533;28;20266;-81
2023/01/30 04:32:09;;;;;;;20.23;15.30;;;-1.60;99.90;;;;;;5019005;28;20266;-81
2023/01/30 04:34:35;;;;;;;26.97;20.67;;;-1.60;99.90;;;;;;5019692;28;20187;-81
2023/01/30 04:37:01;;;;;;;28.13;19.27;;;-1.60;99.90;;;;;;5017277;28;20199;-81
2023/01/30 04:39:27;;;;;;;26.97;20.40;;;-1.50;99.90;;;;;;5020666;28;20190;-82
2023/01/30 04:41:53;;;;;;;28.07;21.77;;;-1.50;99.90;;;;;;5017827;28;20198;-81
2023/01/30 04:44:19;;;;;;;24.37;18.47;;;-1.40;99.90;;;;;;5017548;28;20190;-81
2023/01/30 04:46:44;;;;;;;22.67;17.50;;;-1.20;99.90;;;;;;5017099;28;20205;-81
2023/01/30 04:49:10;;;;;;;20.97;16.53;;;-1.00;99.90;;;;;;5017083;28;20218;-81
2023/01/30 04:51:36;;;;;;;21.83;19.53;;;-0.90;99.90;;;;;;5016898;28;20194;-81
2023/01/30 04:54:02;;;;;;;24.50;22.00;;;-0.70;99.90;;;;;;5028140;28;20179;-81
2023/01/30 04:56:28;;;;;;;19.23;14.10;;;-0.50;99.90;;;;;;5031087;28;20199;-82
2023/01/30 04:58:54;;;;;;;18.83;16.77;;;-0.40;99.90;;;;;;5034912;28;20297;-82
2023/01/30 05:01:29;;;;;;;22.37;20.17;;;-0.20;99.90;;;;;;5018233;28;20185;-82
2023/01/30 05:03:56;;;;;;;19.03;16.10;;;-0.10;99.90;;;;;;5018117;28;20221;-82
2023/01/30 05:06:22;;;;;;;17.57;13.17;;;-0.10;99.90;;;;;;5020523;28;20202;-81
2023/01/30 05:08:49;;;;;;;15.87;13.50;;;0.00;99.90;;;;;;5012992;28;20218;-81
2023/01/30 05:11:15;;;;;;;15.60;13.13;;;0.00;99.90;;;;;;5028545;28;20183;-81
2023/01/30 05:13:42;;;;;;;15.20;11.77;;;0.10;99.90;;;;;;5026845;28;20236;-79
2023/01/30 05:16:12;;;;;;;19.90;14.27;;;0.10;99.90;;;;;;5027390;28;20222;-79
2023/01/30 05:18:38;;;;;;;19.33;17.10;;;0.10;99.90;;;;;;5024288;28;20192;-81
2023/01/30 05:21:11;;;;;;;17.73;15.93;;;0.10;99.90;;;;;;5018291;28;20550;-81
2023/01/30 05:23:37;;;;;;;15.87;12.97;;;0.10;99.90;;;;;;5018275;28;20185;-81
2023/01/30 05:26:03;;;;;;;18.87;13.60;;;0.20;99.90;;;;;;5037842;28;20291;-81
2023/01/30 05:28:30;;;;;;;16.80;15.10;;;0.20;99.90;;;;;;5037019;28;20225;-81
2023/01/30 05:31:09;;;;;;;17.93;16.10;;;0.20;99.90;;;;;;5035874;28;20183;-81
2023/01/30 05:33:35;;;;;;;16.50;14.80;;;0.20;99.90;;;;;;5017414;28;20208;-81
2023/01/30 05:36:01;;;;;;;18.87;14.87;;;0.20;99.90;;;;;;5018563;28;20697;-81
2023/01/30 05:38:27;;;;;;;15.90;14.30;;;0.20;99.90;;;;;;5017740;28;20186;-81
2023/01/30 05:41:04;;;;;;;18.00;16.20;;;0.20;99.90;;;;;;5018147;28;20177;-81
2023/01/30 05:43:30;;;;;;;15.47;13.53;;;0.20;99.90;;;;;;5019090;28;20191;-79
2023/01/30 05:45:58;;;;;;;15.03;13.57;;;0.20;99.90;;;;;;5044593;28;20665;-80
2023/01/30 05:48:24;;;;;;;19.77;16.10;;;0.20;99.90;;;;;;5016356;28;20213;-80
2023/01/30 05:50:51;;;;;;;17.10;15.30;;;0.20;99.90;;;;;;5016018;28;20268;-79
2023/01/30 05:53:18;;;;;;;17.80;15.80;;;0.20;99.90;;;;;;5015590;28;20281;-80
2023/01/30 05:55:44;;;;;;;20.10;18.13;;;0.20;99.90;;;;;;5032704;28;20183;-80
2023/01/30 05:58:10;;;;;;;16.23;14.63;;;0.20;99.90;;;;;;5015734;28;20187;-80
2023/01/30 06:00:35;;;;;;;17.37;15.47;;;0.20;99.90;;;;;;5015095;28;20182;-80
2023/01/30 06:03:01;;;;;;;16.83;15.03;;;0.20;99.90;;;;;;5016995;28;20807;-80
2023/01/30 06:05:27;;;;;;;17.00;15.23;;;0.30;99.90;;;;;;5017272;28;20216;-79
2023/01/30 06:07:53;;;;;;;17.50;15.70;;;0.20;99.90;;;;;;5034196;28;20218;-81
2023/01/30 06:10:18;;;;;;;18.57;16.67;;;0.30;99.90;;;;;;5032592;28;20204;-80
2023/01/30 06:12:44;;;;;;;15.73;14.13;;;0.30;99.90;;;;;;5035581;28;20179;-79
2023/01/30 06:15:10;;;;;;;15.43;13.80;;;0.30;99.90;;;;;;5025051;28;20173;-79
2023/01/30 06:17:36;;;;;;;15.47;14.03;;;0.30;99.90;;;;;;5041530;28;20319;-79
2023/01/30 06:20:02;;;;;;;17.27;15.20;;;0.30;99.90;;;;;;5016871;28;20209;-81
2023/01/30 06:22:28;;;;;;;20.93;18.83;;;0.30;99.90;;;;;;5016599;28;20181;-81
2023/01/30 06:24:54;;;;;;;17.53;14.23;;;0.30;99.90;;;;;;5016054;28;20203;-80
2023/01/30 06:27:20;;;;;;;16.43;14.73;;;0.30;99.90;;;;;;5035922;28;20221;-79
2023/01/30 06:29:46;;;;;;;17.40;15.53;;;0.30;99.90;;;;;;5024774;28;20215;-79
2023/01/30 06:32:12;;;;;;;17.30;15.57;;;0.20;99.90;;;;;;5027703;28;20178;-78
2023/01/30 06:34:38;;;;;;;18.37;15.37;;;0.30;99.90;;;;;;5023620;28;20187;-80
2023/01/30 06:37:03;;;;;;;18.10;16.37;;;0.30;99.90;;;;;;5032215;28;20231;-80
2023/01/30 06:39:29;;;;;;;15.67;14.20;;;0.30;99.90;;;;;;5013276;28;20183;-79
2023/01/30 06:41:55;;;;;;;19.20;17.30;;;0.30;99.90;;;;;;5032410;28;20225;-80
2023/01/30 06:44:21;;;;;;;20.17;18.10;;;0.40;99.90;;;;;;5014284;28;20197;-79
2023/01/30 06:46:46;;;;;;;23.87;21.60;;;0.40;99.90;;;;;;5036055;28;20643;-78
2023/01/30 06:49:12;;;;;;;20.63;18.77;;;0.50;99.90;;;;;;5037789;28;20286;-80
2023/01/30 06:51:38;;;;;;;24.40;22.57;;;0.50;99.90;;;;;;5030992;28;20185;-73
2023/01/30 06:54:04;;;;;;;17.63;15.93;;;0.50;99.90;;;;;;5030503;28;20271;-73
2023/01/30 06:56:30;;;;;;;17.70;15.97;;;0.60;99.90;;;;;;5016566;28;20214;-73
2023/01/30 06:58:55;;;;;;;16.57;14.93;;;0.60;99.90;;;;;;5012883;28;20205;-73
2023/01/30 07:01:21;;;;;;;16.83;12.33;;;0.60;99.90;;;;;;5012555;28;20249;-72
2023/01/30 07:03:47;;;;;;;14.37;12.67;;;0.70;99.90;;;;;;5030031;28;20185;-72
2023/01/30 07:06:13;;;;;;;16.37;12.60;;;0.70;99.90;;;;;;5029665;28;20213;-72
2023/01/30 07:08:39;;;;;;;13.70;12.23;;;0.80;99.90;;;;;;5029283;28;20198;-73
2023/01/30 07:11:05;;;;;;;16.80;13.43;;;0.80;99.90;;;;;;5011932;28;20182;-73
2023/01/30 07:13:31;;;;;;;13.20;11.83;;;0.80;99.90;;;;;;5030093;28;20182;-72
2023/01/30 07:15:57;;;;;;;16.63;13.17;;;0.80;99.90;;;;;;5011929;28;20189;-73
2023/01/30 07:18:23;;;;;;;15.83;14.07;;;0.90;99.90;;;;;;5029475;28;20183;-73
2023/01/30 07:20:49;;;;;;;17.63;16.03;;;0.90;99.90;;;;;;5012425;28;20232;-73
2023/01/30 07:23:15;;;;;;;17.70;15.80;;;0.90;99.90;;;;;;5031844;28;20307;-72
2023/01/30 07:25:41;;;;;;;16.13;14.80;;;1.00;99.90;;;;;;5033600;28;20690;-74
2023/01/30 07:28:08;;;;;;;21.60;19.77;;;1.00;99.90;;;;;;5033350;28;20238;-72
2023/01/30 07:30:34;;;;;;;16.77;15.03;;;1.00;99.90;;;;;;5033678;28;20627;-71
2023/01/30 07:33:02;;;;;;;18.47;14.23;;;1.00;99.90;;;;;;5033366;28;20210;-73
2023/01/30 07:35:31;;;;;;;16.47;13.33;;;1.00;99.90;;;;;;5016117;28;20322;-74
2023/01/30 07:37:57;;;;;;;12.50;10.67;;;1.00;99.90;;;;;;5015289;28;20199;-74
2023/01/30 07:40:24;;;;;;;12.43;11.07;;;1.10;99.90;;;;;;5033232;28;20187;-73
2023/01/30 07:43:07;;;;;;;13.83;11.93;;;1.10;99.90;;;;;;5015950;28;20652;-73
2023/01/30 07:45:41;;;;;;;13.50;11.80;;;1.10;99.90;;;;;;5033330;28;20209;-74
2023/01/30 07:48:10;;;;;;;13.70;11.57;;;1.20;99.90;;;;;;5015306;28;20210;-68
2023/01/30 09:00:07;;;;;;;12.60;11.30;;;2.00;99.90;;;;;;5012744;28;20275;-74
2023/01/30 09:02:34;;;;;;;12.70;11.50;;;2.20;99.90;;;;;;4995069;28;20603;-74
2023/01/30 09:04:59;;;;;;;11.00;9.93;;;2.30;99.90;;;;;;4994960;28;20179;-75
2023/01/30 09:07:27;;;;;;;13.10;10.97;;;2.30;99.90;;;;;;5012567;28;20282;-75
2023/01/30 09:09:53;;;;;;;11.97;10.70;;;2.40;99.90;;;;;;4995016;28;20589;-74
2023/01/30 09:12:19;;;;;;;12.97;11.00;;;2.40;99.90;;;;;;4994698;28;20195;-75
2023/01/30 09:14:44;;;;;;;12.13;10.93;;;2.40;99.90;;;;;;5010836;28;20215;-74
2023/01/30 09:17:10;;;;;;;11.90;10.67;;;2.50;99.90;;;;;;4996874;28;20185;-74
2023/01/30 09:19:36;;;;;;;11.60;10.47;;;2.50;99.90;;;;;;4992781;28;20620;-74
2023/01/30 09:22:02;;;;;;;11.60;10.33;;;2.50;99.90;;;;;;4982013;28;20276;-74
2023/01/30 09:24:28;;;;;;;11.37;10.27;;;2.60;99.90;;;;;;4992415;28;20184;-74
2023/01/30 09:26:56;;;;;;;10.33;9.43;;;2.70;99.90;;;;;;4975626;28;20733;-75
2023/01/30 09:29:22;;;;;;;13.27;10.60;;;2.80;99.90;;;;;;4992560;28;20725;-75
2023/01/30 09:31:48;;;;;;;11.43;9.40;;;2.90;99.90;;;;;;4974722;28;20297;-74
2023/01/30 09:34:14;;;;;;;10.97;9.97;;;3.00;99.90;;;;;;5002348;28;20425;-75
2023/01/30 09:36:40;;;;;;;10.40;9.37;;;3.00;99.90;;;;;;4994579;28;20215;-75
2023/01/30 09:39:06;;;;;;;9.43;8.50;;;3.00;99.90;;;;;;5011694;28;20210;-74
2023/01/30 09:41:43;;;;;;;8.83;7.93;;;3.00;99.90;;;;;;4994620;28;20295;-75
2023/01/30 09:44:46;;;;;;;10.00;8.87;;;2.90;99.90;;;;;;4994048;28;20600;-74
2023/01/30 09:47:18;;;;;;;9.93;9.03;;;2.80;99.90;;;;;;4994359;28;20186;-74
2023/01/30 09:49:55;;;;;;;9.10;8.17;;;2.80;99.90;;;;;;5011373;28;20634;-74
2023/01/30 09:53:06;;;;;;;8.67;7.87;;;2.90;99.90;;;;;;5011222;28;20197;-74
2023/01/30 09:55:36;;;;;;;9.00;8.10;;;2.90;99.90;;;;;;5005131;28;20226;-75
2023/01/30 09:58:02;;;;;;;9.33;8.53;;;3.00;99.90;;;;;;5011535;28;20224;-75
2023/01/30 10:00:35;;;;;;;9.00;8.13;;;3.00;99.90;;;;;;5011090;28;20198;-74
2023/01/30 10:03:07;;;;;;;9.20;7.80;;;3.10;99.90;;;;;;5011549;28;20177;-74
2023/01/30 10:05:55;;;;;;;9.60;8.70;;;3.10;99.90;;;;;;4993062;28;20667;-79
2023/01/30 10:08:51;;;;;;;9.20;8.40;;;3.10;99.90;;;;;;5009809;28;20272;-74
2023/01/30 10:11:43;;;;;;;8.57;7.77;;;3.10;99.90;;;;;;4993902;28;20187;-73
2023/01/30 10:14:55;;;;;;;9.40;8.53;;;3.00;99.90;;;;;;4993335;28;20342;-67
2023/01/30 10:17:30;;;;;;;9.37;8.53;;;3.00;99.90;;;;;;4960598;28;20202;-67
2023/01/30 10:20:57;;;;;;;8.10;7.40;;;3.00;99.90;;;;;;5011269;28;20182;-67
2023/01/30 10:23:28;;;;;;;8.60;7.80;;;3.10;99.90;;;;;;4908590;29;20200;-73
2023/01/30 10:26:18;;;;;;;15.00;8.07;;;3.20;99.90;;;;;;4911688;29;20606;-73
2023/01/30 10:29:25;;;;;;;8.57;7.77;;;3.20;99.90;;;;;;4965701;28;20313;-73
2023/01/30 10:31:59;;;;;;;10.83;8.20;;;3.30;99.90;;;;;;4912412;29;20273;-74
2023/01/30 10:34:31;;;;;;;8.67;6.60;;;3.30;99.90;;;;;;4996278;28;20189;-73
2023/01/30 10:37:17;;;;;;;8.63;7.93;;;3.30;99.90;;;;;;5010884;28;20183;-74
2023/01/30 10:40:12;;;;;;;8.57;7.77;;;3.40;99.90;;;;;;4993302;28;20591;-74
2023/01/30 10:43:08;;;;;;;8.70;7.90;;;3.40;99.90;;;;;;4993707;28;20195;-74
2023/01/30 10:45:43;;;;;;;8.30;7.53;;;3.30;99.90;;;;;;4990424;28;20255;-74
2023/01/30 10:48:51;;;;;;;8.30;7.57;;;3.30;99.90;;;;;;5007496;28;20243;-73
2023/01/30 10:51:34;;;;;;;8.23;7.53;;;3.40;99.90;;;;;;4990794;28;20195;-74
2023/01/30 10:54:07;;;;;;;9.03;7.60;;;3.40;99.90;;;;;;4991488;28;20187;-73
2023/01/30 10:56:45;;;;;;;8.37;6.67;;;3.50;99.90;;;;;;4974863;28;20172;-73
2023/01/30 10:59:20;;;;;;;8.33;7.60;;;3.50;99.90;;;;;;4995900;28;20215;-73
2023/01/30 11:01:57;;;;;;;8.50;7.60;;;3.50;99.90;;;;;;4995422;28;20207;-73
2023/01/30 11:04:31;;;;;;;8.93;7.53;;;3.60;99.90;;;;;;5004868;28;20231;-73
2023/01/30 11:06:59;;;;;;;19.67;8.77;;;3.60;99.90;;;;;;5014505;28;20205;-73
2023/01/30 11:09:46;;;;;;;9.07;8.47;;;3.60;99.90;;;;;;5014574;28;20222;-73
2023/01/30 11:12:13;;;;;;;9.80;8.97;;;3.60;99.90;;;;;;5014614;28;20190;-74
2023/01/30 11:15:01;;;;;;;10.93;10.13;;;3.70;99.90;;;;;;5014553;28;20679;-73
2023/01/30 11:17:37;;;;;;;7.33;6.73;;;3.70;99.90;;;;;;5014619;28;20187;-73
2023/01/30 11:20:12;;;;;;;12.87;11.97;;;3.50;99.90;;;;;;5014546;28;20183;-74
2023/01/30 11:22:48;;;;;;;7.67;7.17;;;3.40;99.90;;;;;;5013600;28;20202;-74
2023/01/30 11:25:20;;;;;;;9.30;8.60;;;3.30;99.90;;;;;;4995516;28;20196;-72
2023/01/30 11:27:54;;;;;;;10.10;9.40;;;3.20;99.90;;;;;;4996039;28;20254;-73
2023/01/30 11:30:21;;;;;;;24.60;23.10;;;3.00;99.90;;;;;;5014303;28;20280;-75
2023/01/30 11:32:50;;;;;;;28.40;26.67;;;3.10;99.90;;;;;;4995380;28;20706;-74
2023/01/30 11:35:24;;;;;;;14.13;13.13;;;3.00;99.90;;;;;;4996526;28;20215;-74
2023/01/30 11:37:52;;;;;;;9.23;8.43;;;2.80;99.90;;;;;;5014204;28;20284;-73
2023/01/30 11:40:24;;;;;;;9.57;8.90;;;2.60;99.90;;;;;;4996477;28;20185;-73
2023/01/30 11:42:57;;;;;;;15.83;14.33;;;2.40;99.90;;;;;;5014508;28;20176;-73
2023/01/30 11:45:25;;;;;;;14.17;12.50;;;2.30;99.90;;;;;;4995981;28;20188;-72
2023/01/30 11:47:58;;;;;;;13.97;12.80;;;2.40;99.90;;;;;;4990252;28;20203;-72
2023/01/30 11:50:40;;;;;;;17.73;16.40;;;2.40;99.90;;;;;;5013386;28;20285;-72
2023/01/30 11:53:25;;;;;;;11.37;9.73;;;2.40;99.90;;;;;;5013737;28;20187;-73
2023/01/30 11:55:53;;;;;;;11.03;10.13;;;2.40;99.90;;;;;;5013105;28;20411;-72
2023/01/30 11:58:18;;;;;;;9.43;8.67;;;2.50;99.90;;;;;;5013391;28;20222;-72
2023/01/30 12:00:48;;;;;;;11.13;9.90;;;2.50;99.90;;;;;;5013138;28;20733;-72
2023/01/30 12:03:17;;;;;;;15.80;14.77;;;2.60;99.90;;;;;;5013642;28;20186;-71
2023/01/30 12:05:45;;;;;;;15.63;14.53;;;2.70;99.90;;;;;;5012949;28;20201;-71
2023/01/30 12:08:20;;;;;;;23.70;21.87;;;2.70;99.90;;;;;;4994921;28;20218;-71
2023/01/30 12:10:58;;;;;;;18.77;17.20;;;2.80;99.90;;;;;;5013304;28;20180;-72
2023/01/30 12:13:34;;;;;;;18.43;17.17;;;2.80;99.90;;;;;;4995772;28;20186;-72
2023/01/30 12:16:25;;;;;;;14.93;13.73;;;2.80;99.90;;;;;;5013113;28;20210;-73
2023/01/30 12:19:11;;;;;;;9.00;8.30;;;2.70;99.90;;;;;;5013097;28;20256;-72
2023/01/30 12:22:00;;;;;;;18.57;17.23;;;2.80;99.90;;;;;;4995538;28;20224;-73
2023/01/30 12:24:57;;;;;;;10.80;9.70;;;2.90;99.90;;;;;;4995306;28;20183;-73
2023/01/30 12:27:41;;;;;;;17.07;15.87;;;2.90;99.90;;;;;;4995717;28;20180;-72
2023/01/30 12:30:25;;;;;;;38.00;35.63;;;2.90;99.90;;;;;;5013012;28;20194;-73
2023/01/30 12:32:59;;;;;;;22.43;21.10;;;2.90;99.90;;;;;;5013291;28;20183;-73
2023/01/30 12:35:54;;;;;;;25.83;24.20;;;2.90;99.90;;;;;;4995697;28;20553;-72
2023/01/30 12:38:40;;;;;;;26.07;24.50;;;2.90;99.90;;;;;;5006677;28;20710;-72
2023/01/30 12:41:26;;;;;;;34.13;31.93;;;2.90;99.90;;;;;;5012828;28;20184;-72
2023/01/30 12:44:24;;;;;;;12.10;11.23;;;2.80;99.90;;;;;;5015119;28;20195;-71
2023/01/30 12:47:24;;;;;;;14.50;13.20;;;2.70;99.90;;;;;;4980478;28;20611;-72
2023/01/30 12:50:08;;;;;;;15.63;14.40;;;2.60;99.90;;;;;;4998480;28;20221;-72
2023/01/30 12:52:43;;;;;;;24.33;22.83;;;2.60;99.90;;;;;;4996453;28;20174;-72
2023/01/30 12:55:21;;;;;;;20.57;19.37;;;2.50;99.90;;;;;;5012306;28;20190;-73
2023/01/30 12:58:07;;;;;;;11.63;10.80;;;2.50;99.90;;;;;;4995244;28;20209;-71
2023/01/30 13:00:50;;;;;;;23.20;21.63;;;2.40;99.90;;;;;;4995014;28;20209;-72
2023/01/30 13:03:34;;;;;;;74.97;70.97;;;2.40;99.90;;;;;;5014052;28;20259;-72
2023/01/30 13:06:15;;;;;;;62.87;59.13;;;2.30;99.90;;;;;;4994860;28;20200;-75
2023/01/30 13:09:16;;;;;;;38.10;35.80;;;2.30;99.90;;;;;;5012205;28;20213;-72
2023/01/30 13:11:50;;;;;;;84.47;79.97;;;2.20;99.90;;;;;;4974615;28;20198;-75
2023/01/30 13:14:32;;;;;;;42.20;39.80;;;2.10;99.90;;;;;;5011941;28;20194;-72
2023/01/30 13:17:27;;;;;;;16.50;15.23;;;2.10;99.90;;;;;;5012436;28;20183;-73
2023/01/30 13:20:11;;;;;;;20.87;19.47;;;2.10;99.90;;;;;;4997690;28;20194;-73
2023/01/30 13:22:46;;;;;;;15.23;14.13;;;2.10;99.90;;;;;;5012101;28;20186;-73
2023/01/30 13:25:29;;;;;;;37.37;35.03;;;2.10;99.90;;;;;;5011731;28;20227;-72
2023/01/30 13:28:01;;;;;;;40.00;37.57;;;2.20;99.90;;;;;;5011845;28;20202;-72
2023/01/30 13:30:29;;;;;;;41.77;39.33;;;2.30;99.90;;;;;;4994401;28;20733;-72
2023/01/30 13:33:05;;;;;;;16.10;14.90;;;2.40;99.90;;;;;;5012173;28;20187;-73
2023/01/30 13:35:40;;;;;;;24.17;22.63;;;2.40;99.90;;;;;;5011757;28;20272;-73
2023/01/30 13:38:09;;;;;;;19.90;18.13;;;2.50;99.90;;;;;;5012143;28;20210;-72
2023/01/30 13:40:41;;;;;;;83.77;79.37;;;2.50;99.90;;;;;;4994188;28;20249;-73
2023/01/30 13:43:13;;;;;;;74.70;70.43;;;2.50;99.90;;;;;;5011828;28;20194;-73
2023/01/30 13:45:44;;;;;;;69.23;65.33;;;2.50;99.90;;;;;;5012061;28;20615;-73
2023/01/30 13:48:24;;;;;;;74.80;70.40;;;2.60;99.90;;;;;;4994016;28;20233;-73
2023/01/30 13:51:22;;;;;;;59.13;55.70;;;2.60;99.90;;;;;;4985626;28;20258;-73
2023/01/30 13:54:26;;;;;;;50.63;47.43;;;2.70;99.90;;;;;;4989378;28;20615;-72
2023/01/30 13:57:20;;;;;;;26.73;25.00;;;2.70;99.90;;;;;;4984362;28;20185;-73
2023/01/30 14:00:01;;;;;;;21.43;19.80;;;2.70;99.90;;;;;;5010943;28;20207;-74
2023/01/30 14:02:27;;;;;;;20.37;18.93;;;2.70;99.90;;;;;;4993506;28;20190;-73
2023/01/30 14:04:54;;;;;;;33.80;31.20;;;2.70;99.90;;;;;;5010646;28;20558;-74
2023/01/30 14:07:25;;;;;;;29.27;27.43;;;2.70;99.90;;;;;;4993436;28;20187;-74
2023/01/30 14:10:09;;;;;;;61.60;58.13;;;2.80;99.90;;;;;;5010935;28;20285;-75
2023/01/30 14:12:51;;;;;;;59.40;56.13;;;2.80;99.90;;;;;;4993460;28;20214;-77
2023/01/30 14:15:22;;;;;;;80.57;76.17;;;2.90;99.90;;;;;;5014798;28;20571;-79
2023/01/30 14:18:02;;;;;;;64.40;60.60;;;2.90;99.90;;;;;;5000752;28;20232;-80
2023/01/30 14:20:31;;;;;;;71.43;67.40;;;3.00;99.90;;;;;;5003546;28;20179;-80
2023/01/30 14:23:03;;;;;;;40.20;37.80;;;3.10;99.90;;;;;;5009709;28;20166;-79
2023/01/30 14:25:28;;;;;;;24.03;22.23;;;3.10;99.90;;;;;;5005342;28;20437;-80
2023/01/30 14:28:01;;;;;;;16.60;14.97;;;3.20;99.90;;;;;;5002962;28;20195;-80
2023/01/30 14:30:30;;;;;;;26.83;25.07;;;3.20;99.90;;;;;;5003254;28;20241;-81
2023/01/30 14:32:57;;;;;;;40.00;37.50;;;3.20;99.90;;;;;;5002260;28;20188;-79
2023/01/30 14:35:29;;;;;;;34.47;32.30;;;3.20;99.90;;;;;;5003732;28;20274;-80
2023/01/30 14:38:18;;;;;;;10.80;9.70;;;3.20;99.90;;;;;;5004540;28;20401;-80
2023/01/30 14:40:46;;;;;;;10.63;9.53;;;3.20;99.90;;;;;;5026473;28;20242;-79
2023/01/30 14:43:12;;;;;;;11.03;9.17;;;3.20;99.90;;;;;;5015933;28;20206;-81
2023/01/30 14:45:46;;;;;;;10.17;9.37;;;3.20;99.90;;;;;;5016451;28;20186;-81
2023/01/30 14:48:47;;;;;;;10.50;9.60;;;3.20;99.90;;;;;;5015375;28;20229;-81
2023/01/30 14:51:22;;;;;;;10.50;9.60;;;3.30;99.90;;;;;;5008086;28;20183;-82
2023/01/30 14:54:06;;;;;;;19.87;18.33;;;3.30;99.90;;;;;;5012595;28;20193;-81
2023/01/30 14:56:41;;;;;;;19.37;18.03;;;3.40;99.90;;;;;;5010924;28;20191;-82
2023/01/30 14:59:21;;;;;;;15.63;14.40;;;3.40;99.90;;;;;;5024682;28;20245;-82
2023/01/30 15:02:01;;;;;;;23.20;21.93;;;3.50;99.90;;;;;;5013810;28;20206;-81
2023/01/30 15:04:43;;;;;;;16.93;15.90;;;3.60;99.90;;;;;;5030078;28;20228;-81
2023/01/30 15:07:21;;;;;;;7.93;7.17;;;3.70;99.90;;;;;;5007958;28;20186;-81
2023/01/30 15:10:11;;;;;;;8.37;7.77;;;3.80;99.90;;;;;;5016070;28;20234;-81
2023/01/30 15:13:01;;;;;;;12.20;11.53;;;3.90;99.90;;;;;;5006764;28;20567;-82
2023/01/30 15:15:33;;;;;;;11.50;10.80;;;3.90;99.90;;;;;;5003260;28;20641;-82
2023/01/30 15:18:20;;;;;;;12.07;11.37;;;3.90;99.90;;;;;;5002652;28;20214;-82
2023/01/30 15:21:14;;;;;;;10.47;9.90;;;4.00;99.90;;;;;;5021502;28;20282;-83
2023/01/30 15:24:01;;;;;;;15.00;14.20;;;4.00;99.90;;;;;;5001078;28;20194;-82
2023/01/30 15:26:48;;;;;;;10.97;10.37;;;4.00;99.90;;;;;;5018144;28;20195;-82
2023/01/30 15:29:35;;;;;;;12.43;11.63;;;3.90;99.90;;;;;;5019249;28;20645;-81
2023/01/30 15:32:15;;;;;;;10.67;10.00;;;3.90;99.90;;;;;;5019720;28;20198;-81
2023/01/30 15:34:52;;;;;;;9.53;8.97;;;3.80;99.90;;;;;;5001808;28;20404;-82
2023/01/30 15:37:36;;;;;;;8.87;8.27;;;3.80;99.90;;;;;;5003746;28;20198;-83
2023/01/30 15:40:14;;;;;;;11.30;10.47;;;3.80;99.90;;;;;;5003128;28;20222;-83
2023/01/30 15:42:45;;;;;;;10.87;10.10;;;3.80;99.90;;;;;;5011417;28;20222;-83
2023/01/30 15:45:53;;;;;;;15.90;14.90;;;3.70;99.90;;;;;;5015894;28;20189;-83
2023/01/30 15:48:47;;;;;;;11.37;10.67;;;3.70;99.90;;;;;;4986928;28;20331;-82
2023/01/30 15:51:15;;;;;;;13.37;12.27;;;3.70;99.90;;;;;;5018195;28;20595;-82
2023/01/30 15:53:50;;;;;;;12.70;11.77;;;3.70;99.90;;;;;;5012670;28;20192;-82
2023/01/30 15:56:23;;;;;;;16.57;15.67;;;3.60;99.90;;;;;;5015469;28;20213;-83
2023/01/30 15:58:49;;;;;;;16.90;15.70;;;3.60;99.90;;;;;;5008422;28;20201;-83
2023/01/30 16:01:22;;;;;;;11.40;10.50;;;3.60;99.90;;;;;;5021640;28;20201;-83
2023/01/30 16:03:49;;;;;;;10.67;9.87;;;3.60;99.90;;;;;;5008421;28;20194;-84
2023/01/30 16:06:35;;;;;;;12.00;11.20;;;3.50;99.90;;;;;;5008315;28;20191;-85
2023/01/30 16:09:17;;;;;;;14.73;13.33;;;3.50;99.90;;;;;;5004891;28;20246;-84
2023/01/30 16:11:43;;;;;;;12.63;11.83;;;3.50;99.90;;;;;;5005405;28;20180;-84
2023/01/30 16:14:12;;;;;;;18.00;16.80;;;3.50;99.90;;;;;;5003090;28;20230;-85
2023/01/30 16:16:49;;;;;;;16.60;15.47;;;3.60;99.90;;;;;;5003050;28;20186;-84
2023/01/30 16:19:27;;;;;;;14.23;13.23;;;3.60;99.90;;;;;;5014246;28;20207;-87
2023/01/30 16:21:59;;;;;;;14.87;13.83;;;3.60;99.90;;;;;;5005818;28;20222;-86
2023/01/30 16:24:34;;;;;;;14.43;13.47;;;3.60;99.90;;;;;;5021776;28;20215;-84
2023/01/30 16:27:05;;;;;;;14.33;12.37;;;3.60;99.90;;;;;;5002272;28;20675;-84
2023/01/30 16:29:44;;;;;;;11.23;10.33;;;3.70;99.90;;;;;;5003568;28;20226;-82
2023/01/30 16:32:13;;;;;;;10.43;9.67;;;3.70;99.90;;;;;;5001417;28;20187;-83
2023/01/30 16:34:42;;;;;;;9.27;8.53;;;3.70;99.90;;;;;;4991622;28;20650;-83
2023/01/30 16:37:25;;;;;;;9.83;8.97;;;3.70;99.90;;;;;;4981593;28;20266;-83
2023/01/30 16:40:09;;;;;;;12.53;11.33;;;3.60;99.90;;;;;;4982085;28;20187;-83
2023/01/30 16:42:36;;;;;;;20.87;12.83;;;3.60;99.90;;;;;;4982628;28;20287;-82
2023/01/30 16:45:09;;;;;;;16.13;12.30;;;3.60;99.90;;;;;;4980901;28;20211;-82
2023/01/30 16:47:36;;;;;;;13.33;11.70;;;3.50;99.90;;;;;;4998347;28;20219;-82
2023/01/30 16:50:03;;;;;;;12.93;11.40;;;3.60;99.90;;;;;;4997889;28;20234;-82
2023/01/30 16:52:35;;;;;;;12.90;11.50;;;3.50;99.90;;;;;;4992411;28;20207;-82
2023/01/30 16:55:07;;;;;;;10.50;9.43;;;3.50;99.90;;;;;;4997135;28;20173;-82
2023/01/30 16:57:39;;;;;;;10.43;9.53;;;3.50;99.90;;;;;;4981056;28;20195;-83
2023/01/30 17:00:33;;;;;;;11.63;9.43;;;3.40;99.90;;;;;;4981511;28;20199;-82
2023/01/30 17:03:20;;;;;;;13.40;12.23;;;3.40;99.90;;;;;;4979340;28;20206;-81
2023/01/30 17:05:46;;;;;;;12.83;11.83;;;3.40;99.90;;;;;;4999972;28;20198;-83
2023/01/30 17:08:52;;;;;;;15.20;13.90;;;3.30;99.90;;;;;;4999457;28;20215;-83
2023/01/30 17:11:48;;;;;;;14.10;13.00;;;3.30;99.90;;;;;;5011370;28;20217;-84
2023/01/30 17:14:17;;;;;;;12.63;11.60;;;3.30;99.90;;;;;;4980646;28;20608;-82
2023/01/30 17:16:45;;;;;;;15.80;14.40;;;3.30;99.90;;;;;;5000621;28;20195;-82
2023/01/30 17:19:11;;;;;;;12.50;11.37;;;3.30;99.90;;;;;;4999464;28;20242;-83
2023/01/30 17:21:48;;;;;;;12.50;11.40;;;3.30;99.90;;;;;;5000734;28;20194;-82
2023/01/30 17:24:18;;;;;;;10.73;9.73;;;3.30;99.90;;;;;;5017809;28;20198;-82
2023/01/30 17:26:49;;;;;;;18.67;16.77;;;3.30;99.90;;;;;;5000782;28;20190;-82
2023/01/30 17:29:15;;;;;;;26.33;24.33;;;3.20;99.90;;;;;;5029385;28;20218;-83
2023/01/30 17:31:51;;;;;;;16.10;14.90;;;3.30;99.90;;;;;;5003774;28;20195;-83
2023/01/30 17:34:18;;;;;;;14.20;12.70;;;3.20;99.90;;;;;;5021691;28;20242;-82
2023/01/30 17:36:45;;;;;;;10.83;9.77;;;3.30;99.90;;;;;;5014925;28;20267;-82
2023/01/30 17:39:16;;;;;;;10.77;9.87;;;3.30;99.90;;;;;;5028206;28;20302;-78
2023/01/30 17:41:43;;;;;;;12.03;11.00;;;3.40;99.90;;;;;;5019631;28;20282;-78
2023/01/30 17:44:10;;;;;;;19.00;17.30;;;3.50;99.90;;;;;;5003860;28;20302;-78
2023/01/30 17:46:39;;;;;;;11.63;10.57;;;3.50;99.90;;;;;;5021774;28;20193;-78
2023/01/30 17:49:08;;;;;;;13.53;12.27;;;3.50;99.90;;;;;;4991428;28;20220;-79
2023/01/30 17:51:34;;;;;;;14.17;13.17;;;3.40;99.90;;;;;;4982370;28;20684;-79
2023/01/30 17:53:59;;;;;;;12.57;11.53;;;3.30;99.90;;;;;;4983025;28;20187;-79
2023/01/30 17:56:35;;;;;;;12.90;11.80;;;3.20;99.90;;;;;;4989713;28;20207;-78
2023/01/30 18:02:53;;;;;;;9.87;9.00;;;3.00;99.90;;;;;;5017961;28;20625;-78
2023/01/30 18:05:21;;;;;;;12.30;9.77;;;2.90;99.90;;;;;;4999611;28;20185;-80
2023/01/30 18:07:46;;;;;;;12.97;11.87;;;2.90;99.90;;;;;;5003078;28;20206;-80
2023/01/30 18:10:17;;;;;;;14.53;13.53;;;2.90;99.90;;;;;;4996058;28;20226;-79
2023/01/30 18:19:55;;;;;;;9.40;8.60;;;3.10;99.90;;;;;;5016754;28;20648;-79
2023/01/30 18:22:21;;;;;;;12.87;11.97;;;3.10;99.90;;;;;;5000095;28;20214;-80
2023/01/30 18:24:46;;;;;;;15.43;14.03;;;3.10;99.90;;;;;;5001688;28;20652;-80
2023/01/30 18:27:12;;;;;;;14.50;13.67;;;3.20;99.90;;;;;;5000876;28;20190;-79
2023/01/30 18:29:51;;;;;;;14.13;13.17;;;3.20;99.90;;;;;;5005523;28;20306;-79
2023/01/30 18:32:16;;;;;;;12.10;11.00;;;3.20;99.90;;;;;;5027825;28;20222;-81
2023/01/30 18:34:42;;;;;;;16.57;14.87;;;3.20;99.90;;;;;;5016696;28;20572;-80
2023/01/30 18:37:08;;;;;;;12.17;11.00;;;3.10;99.90;;;;;;5001454;28;20179;-81